createdAt,value
2019-02-08T00:00:27.993Z,1.90
2019-02-08T00:02:58.359Z,1.90
2019-02-08T00:05:28.821Z,1.90
2019-02-08T00:07:59.254Z,1.90
2019-02-08T00:10:30.198Z,2.00
2019-02-08T00:13:01.065Z,2.00
2019-02-08T00:15:31.997Z,2.00
2019-02-08T00:18:02.426Z,2.10
2019-02-08T00:20:32.994Z,2.10
2019-02-08T00:23:03.320Z,2.10
2019-02-08T00:25:33.721Z,2.10
2019-02-08T00:28:04.462Z,2.10
2019-02-08T00:30:35.796Z,2.20
2019-02-08T00:33:06.284Z,2.20
2019-02-08T00:35:38.440Z,2.10
2019-02-08T00:38:12.437Z,2.10
2019-02-08T00:40:43.136Z,2.20
2019-02-08T00:43:13.572Z,2.20
2019-02-08T00:45:43.981Z,2.20
2019-02-08T00:48:14.661Z,2.30
2019-02-08T00:50:45.330Z,2.30
2019-02-08T00:53:18.476Z,2.30
2019-02-08T00:55:48.877Z,2.40
2019-02-08T00:58:19.496Z,2.40
2019-02-08T01:00:49.887Z,2.40
2019-02-08T01:03:21.655Z,2.40
2019-02-08T01:05:52.126Z,2.40
2019-02-08T01:08:24.260Z,2.50
2019-02-08T01:10:55.090Z,2.50
2019-02-08T01:13:25.544Z,2.50
2019-02-08T01:15:56.000Z,2.50
2019-02-08T01:18:26.470Z,2.60
2019-02-08T01:20:56.977Z,2.60
2019-02-08T01:23:27.882Z,2.60
2019-02-08T01:25:58.481Z,2.60
2019-02-08T01:28:28.941Z,2.60
2019-02-08T01:30:59.448Z,2.60
2019-02-08T01:33:30.458Z,2.60
2019-02-08T01:36:00.854Z,2.60
2019-02-08T01:38:31.620Z,2.60
2019-02-08T01:41:02.117Z,2.60
2019-02-08T01:43:32.863Z,2.70
2019-02-08T01:46:03.255Z,2.70
2019-02-08T01:48:33.670Z,2.70
2019-02-08T01:51:04.258Z,2.70
2019-02-08T01:53:34.706Z,2.70
2019-02-08T01:56:05.340Z,2.70
2019-02-08T01:58:36.267Z,2.70
2019-02-08T02:01:07.140Z,2.70
2019-02-08T02:03:37.496Z,2.60
2019-02-08T02:06:07.926Z,2.70
2019-02-08T02:08:38.400Z,2.70
2019-02-08T02:11:08.838Z,2.70
2019-02-08T02:13:39.566Z,2.80
2019-02-08T02:16:10.276Z,2.80
2019-02-08T02:18:40.880Z,2.80
2019-02-08T02:21:11.390Z,2.70
2019-02-08T02:23:41.780Z,2.70
2019-02-08T02:26:12.182Z,2.70
2019-02-08T02:28:42.590Z,2.70
2019-02-08T02:31:13.052Z,2.70
2019-02-08T02:33:43.484Z,2.60
2019-02-08T02:36:14.592Z,2.60
2019-02-08T02:38:44.855Z,2.60
2019-02-08T02:41:15.617Z,2.60
2019-02-08T02:43:46.431Z,2.60
2019-02-08T02:46:16.876Z,2.50
2019-02-08T02:48:49.752Z,2.50
2019-02-08T02:51:20.193Z,2.50
2019-02-08T02:53:50.588Z,2.50
2019-02-08T02:56:20.984Z,2.50
2019-02-08T02:58:51.479Z,2.50
2019-02-08T03:01:24.879Z,2.50
2019-02-08T03:03:55.370Z,2.50
2019-02-08T03:06:25.791Z,2.50
2019-02-08T03:08:56.188Z,2.50
2019-02-08T03:11:26.558Z,2.50
2019-02-08T03:13:57.148Z,2.50
2019-02-08T03:16:27.818Z,2.50
2019-02-08T03:18:58.265Z,2.50
2019-02-08T03:21:28.959Z,2.50
2019-02-08T03:23:59.372Z,2.50
2019-02-08T03:26:29.712Z,2.50
2019-02-08T03:29:00.154Z,2.50
2019-02-08T03:31:33.511Z,2.50
2019-02-08T03:34:05.977Z,2.50
2019-02-08T03:36:36.434Z,2.50
2019-02-08T03:39:09.400Z,2.60
2019-02-08T03:41:40.011Z,2.60
2019-02-08T03:44:10.441Z,2.60
2019-02-08T03:46:41.203Z,2.60
2019-02-08T03:49:12.147Z,2.60
2019-02-08T03:51:42.585Z,2.60
2019-02-08T03:54:20.725Z,2.50
2019-02-08T03:56:45.092Z,2.50
2019-02-08T03:59:17.851Z,2.50
2019-02-08T04:01:48.359Z,2.50
2019-02-08T04:04:19.049Z,2.50
2019-02-08T04:06:50.757Z,2.50
2019-02-08T04:09:21.244Z,2.50
2019-02-08T04:11:51.603Z,2.50
2019-02-08T04:14:22.029Z,2.50
2019-02-08T04:16:52.565Z,2.50
2019-02-08T04:19:22.901Z,2.50
2019-02-08T04:21:53.341Z,2.60
2019-02-08T04:24:29.759Z,2.50
2019-02-08T04:26:55.761Z,2.60
2019-02-08T04:29:26.178Z,2.60
2019-02-08T04:31:56.691Z,2.60
2019-02-08T04:34:28.953Z,2.60
2019-02-08T04:36:59.755Z,2.60
2019-02-08T04:39:30.484Z,2.60
2019-02-08T04:42:01.067Z,2.60
2019-02-08T04:44:33.705Z,2.60
2019-02-08T04:47:04.107Z,2.60
2019-02-08T04:49:35.060Z,2.70
2019-02-08T04:52:05.597Z,2.70
2019-02-08T04:54:38.402Z,2.70
2019-02-08T04:57:08.259Z,2.70
2019-02-08T04:59:38.612Z,2.60
2019-02-08T05:02:09.074Z,2.70
2019-02-08T05:04:39.491Z,2.70
2019-02-08T05:07:09.986Z,2.70
2019-02-08T05:09:42.659Z,2.70
2019-02-08T05:12:12.995Z,2.70
2019-02-08T05:14:44.552Z,2.70
2019-02-08T05:17:15.171Z,2.80
2019-02-08T05:19:45.741Z,2.80
2019-02-08T05:22:16.153Z,2.70
2019-02-08T05:24:46.635Z,2.70
2019-02-08T05:27:17.181Z,2.70
2019-02-08T05:29:47.675Z,2.70
2019-02-08T05:32:18.083Z,2.70
2019-02-08T05:34:48.533Z,2.70
2019-02-08T05:37:19.079Z,2.70
2019-02-08T05:39:49.511Z,2.70
2019-02-08T05:42:19.904Z,2.70
2019-02-08T05:44:50.403Z,2.70
2019-02-08T05:47:20.969Z,2.60
2019-02-08T05:49:51.598Z,2.70
2019-02-08T05:52:21.951Z,2.70
2019-02-08T05:54:54.459Z,2.70
2019-02-08T05:57:24.371Z,2.70
2019-02-08T05:59:55.281Z,2.70
2019-02-08T06:02:25.775Z,2.70
2019-02-08T06:04:56.223Z,2.70
2019-02-08T06:07:26.647Z,2.80
2019-02-08T06:09:57.431Z,2.70
2019-02-08T06:12:27.876Z,2.80
2019-02-08T06:14:58.523Z,2.80
2019-02-08T06:17:28.980Z,2.80
2019-02-08T06:19:59.457Z,2.80
2019-02-08T06:22:29.865Z,2.80
2019-02-08T06:25:04.512Z,2.90
2019-02-08T06:27:35.435Z,2.90
2019-02-08T06:30:07.415Z,2.90
2019-02-08T06:32:38.081Z,2.90
2019-02-08T06:35:09.401Z,3.00
2019-02-08T06:37:44.464Z,3.00
2019-02-08T06:40:14.361Z,3.00
2019-02-08T06:42:45.099Z,3.00
2019-02-08T06:45:16.892Z,3.00
2019-02-08T06:47:47.616Z,3.00
2019-02-08T06:50:20.070Z,3.10
2019-02-08T06:52:50.486Z,3.10
2019-02-08T06:55:21.266Z,3.10
2019-02-08T06:57:57.602Z,3.10
2019-02-08T07:00:32.703Z,3.10
2019-02-08T07:03:22.077Z,3.20
2019-02-08T07:06:14.468Z,3.20
2019-02-08T07:09:02.707Z,3.20
2019-02-08T07:11:51.583Z,3.20
2019-02-08T07:14:46.730Z,3.30
2019-02-08T07:17:36.201Z,3.30
2019-02-08T07:20:26.697Z,3.30
2019-02-08T07:23:28.599Z,3.40
2019-02-08T07:26:36.259Z,3.40
2019-02-08T07:29:19.056Z,3.40
2019-02-08T07:32:07.065Z,3.50
2019-02-08T07:34:56.663Z,3.60
2019-02-08T07:37:46.032Z,3.60
2019-02-08T07:40:40.232Z,3.60
2019-02-08T07:43:39.821Z,3.70
2019-02-08T07:46:32.611Z,3.70
2019-02-08T07:49:21.126Z,3.70
2019-02-08T07:52:10.487Z,3.60
2019-02-08T07:54:59.893Z,3.60
2019-02-08T07:57:50.601Z,3.70
2019-02-08T08:00:51.447Z,3.80
2019-02-08T08:03:35.726Z,3.90
2019-02-08T08:06:25.709Z,4.10
2019-02-08T08:09:27.502Z,4.30
2019-02-08T08:12:19.682Z,4.70
2019-02-08T08:15:08.401Z,5.10
2019-02-08T08:18:01.249Z,5.20
2019-02-08T08:20:50.537Z,5.30
2019-02-08T08:23:56.906Z,5.40
2019-02-08T08:27:00.591Z,5.60
2019-02-08T08:29:57.771Z,5.60
2019-02-08T08:32:38.599Z,5.50
2019-02-08T08:35:33.955Z,5.30
2019-02-08T08:38:51.072Z,5.00
2019-02-08T08:42:01.159Z,4.90
2019-02-08T08:45:14.640Z,4.80
2019-02-08T08:48:22.695Z,4.90
2019-02-08T08:51:39.419Z,5.00
2019-02-08T08:54:56.506Z,5.20
2019-02-08T08:58:09.465Z,5.50
2019-02-08T09:01:21.043Z,5.60
2019-02-08T09:04:21.743Z,5.80
2019-02-08T09:07:16.380Z,6.00
2019-02-08T09:10:20.825Z,6.30
2019-02-08T09:13:44.613Z,6.50
2019-02-08T09:16:56.151Z,6.70
2019-02-08T09:20:14.029Z,7.00
2019-02-08T09:23:21.103Z,7.10
2019-02-08T09:26:33.491Z,7.30
2019-02-08T09:29:35.334Z,7.50
2019-02-08T09:33:06.051Z,7.60
2019-02-08T09:36:23.275Z,7.70
2019-02-08T09:39:31.166Z,7.90
2019-02-08T09:42:38.371Z,8.00
2019-02-08T09:45:54.521Z,8.00
2019-02-08T09:49:05.262Z,8.10
2019-02-08T09:52:17.208Z,8.20
2019-02-08T09:55:43.707Z,8.20
2019-02-08T09:58:46.426Z,8.30
2019-02-08T10:01:56.621Z,8.50
2019-02-08T10:05:26.314Z,8.40
2019-02-08T10:08:52.678Z,8.50
2019-02-08T10:11:59.300Z,8.80
2019-02-08T10:15:05.304Z,8.80
2019-02-08T10:18:18.765Z,8.80
2019-02-08T10:21:29.945Z,9.00
2019-02-08T10:24:44.613Z,9.10
2019-02-08T10:27:40.571Z,9.20
2019-02-08T10:30:58.286Z,9.40
2019-02-08T10:34:14.611Z,9.60
2019-02-08T10:37:27.813Z,9.50
2019-02-08T10:40:48.213Z,9.60
2019-02-08T10:43:46.737Z,9.60
2019-02-08T10:46:45.585Z,9.70
2019-02-08T10:50:02.888Z,9.80
2019-02-08T10:53:09.075Z,9.60
2019-02-08T10:56:15.115Z,9.50
2019-02-08T10:59:29.057Z,9.90
2019-02-08T11:02:39.522Z,10.10
2019-02-08T11:05:45.706Z,10.30
2019-02-08T11:08:43.670Z,10.50
2019-02-08T11:12:14.677Z,10.60
2019-02-08T11:15:45.070Z,10.40
2019-02-08T11:18:52.423Z,10.40
2019-02-08T11:21:23.024Z,10.60
2019-02-08T11:23:53.420Z,10.90
2019-02-08T11:26:24.568Z,11.00
2019-02-08T11:28:55.317Z,10.80
2019-02-08T11:31:25.706Z,10.90
2019-02-08T11:33:56.113Z,11.30
2019-02-08T11:36:26.678Z,11.40
2019-02-08T11:38:57.099Z,11.30
2019-02-08T11:41:27.684Z,11.40
2019-02-08T11:43:58.346Z,11.50
2019-02-08T11:46:28.745Z,11.50
2019-02-08T11:48:59.278Z,11.60
2019-02-08T11:51:30.054Z,11.60
2019-02-08T11:54:00.524Z,11.80
2019-02-08T11:56:31.027Z,11.90
2019-02-08T11:59:01.409Z,11.70
2019-02-08T12:01:36.794Z,11.50
2019-02-08T12:04:08.055Z,11.50
2019-02-08T12:06:38.587Z,11.60
2019-02-08T12:09:15.379Z,11.70
2019-02-08T12:11:45.872Z,11.70
2019-02-08T12:14:16.719Z,11.50
2019-02-08T12:16:47.246Z,11.20
2019-02-08T12:19:18.018Z,11.30
2019-02-08T12:21:52.273Z,11.50
2019-02-08T12:24:22.790Z,11.50
2019-02-08T12:26:53.427Z,11.30
2019-02-08T12:29:24.226Z,11.30
2019-02-08T12:31:54.643Z,11.40
2019-02-08T12:34:25.004Z,11.50
2019-02-08T12:36:55.454Z,11.60
2019-02-08T12:39:26.201Z,11.60
2019-02-08T12:41:56.685Z,11.50
2019-02-08T12:44:27.534Z,11.40
2019-02-08T12:46:57.918Z,11.60
2019-02-08T12:49:28.312Z,11.80
2019-02-08T12:51:58.756Z,11.90
2019-02-08T12:54:29.235Z,12.10
2019-02-08T12:56:59.723Z,12.10
2019-02-08T12:59:30.504Z,12.00
2019-02-08T13:02:01.258Z,12.00
2019-02-08T13:04:32.993Z,11.80
2019-02-08T13:07:03.431Z,11.70
2019-02-08T13:09:34.030Z,11.70
2019-02-08T13:12:05.372Z,11.60
2019-02-08T13:14:35.816Z,11.50
2019-02-08T13:17:06.292Z,11.30
2019-02-08T13:19:38.009Z,11.20
2019-02-08T13:22:08.552Z,11.00
2019-02-08T13:24:39.062Z,10.50
2019-02-08T13:27:09.813Z,10.00
2019-02-08T13:29:40.274Z,9.60
2019-02-08T13:32:10.863Z,9.20
2019-02-08T13:34:41.799Z,8.90
2019-02-08T13:37:12.240Z,8.70
2019-02-08T13:39:42.850Z,8.50
2019-02-08T13:42:13.293Z,8.30
2019-02-08T13:44:43.662Z,8.20
2019-02-08T13:47:14.369Z,8.20
2019-02-08T13:49:44.825Z,8.10
2019-02-08T13:52:15.431Z,8.00
2019-02-08T13:54:45.865Z,7.90
2019-02-08T13:57:17.033Z,7.80
2019-02-08T13:59:47.612Z,7.80
2019-02-08T14:02:17.977Z,7.70
2019-02-08T14:04:48.653Z,7.70
2019-02-08T14:07:19.138Z,7.60
2019-02-08T14:09:49.571Z,7.60
2019-02-08T14:12:19.917Z,7.60
2019-02-08T14:14:50.321Z,7.60
2019-02-08T14:17:20.722Z,7.50
2019-02-08T14:19:51.240Z,7.50
2019-02-08T14:22:21.770Z,7.50
2019-02-08T14:24:52.171Z,7.40
2019-02-08T14:27:22.675Z,7.30
2019-02-08T14:29:53.163Z,7.10
2019-02-08T14:32:24.759Z,7.00
2019-02-08T14:34:55.337Z,6.90
2019-02-08T14:37:26.012Z,6.80
2019-02-08T14:39:59.131Z,6.80
2019-02-08T14:42:29.665Z,6.80
2019-02-08T14:45:00.287Z,6.80
2019-02-08T14:47:30.731Z,6.80
2019-02-08T14:50:01.407Z,6.70
2019-02-08T14:52:31.757Z,6.60
2019-02-08T14:55:02.354Z,6.60
2019-02-08T14:57:32.781Z,6.60
2019-02-08T15:00:03.148Z,6.60
2019-02-08T15:02:33.770Z,6.50
2019-02-08T15:05:04.852Z,6.50
2019-02-08T15:07:35.255Z,6.50
2019-02-08T15:10:08.096Z,6.50
2019-02-08T15:12:39.514Z,6.40
2019-02-08T15:15:10.525Z,6.40
2019-02-08T15:17:41.101Z,6.40
2019-02-08T15:20:18.500Z,6.30
2019-02-08T15:22:49.078Z,6.20
2019-02-08T15:25:20.072Z,6.20
2019-02-08T15:27:50.911Z,6.20
2019-02-08T15:30:23.671Z,6.10
2019-02-08T15:32:54.096Z,6.10
2019-02-08T15:35:28.718Z,6.00
2019-02-08T15:37:59.621Z,6.00
2019-02-08T15:40:36.316Z,5.90
2019-02-08T15:43:07.088Z,5.90
2019-02-08T15:45:37.512Z,5.80
2019-02-08T15:48:08.307Z,5.80
2019-02-08T15:50:38.772Z,5.70
2019-02-08T15:53:12.487Z,5.70
2019-02-08T15:55:44.911Z,5.60
2019-02-08T15:58:15.304Z,5.60
2019-02-08T16:00:46.320Z,5.60
2019-02-08T16:03:17.194Z,5.60
2019-02-08T16:05:47.875Z,5.60
2019-02-08T16:08:19.264Z,5.50
2019-02-08T16:10:50.032Z,5.50
2019-02-08T16:13:20.424Z,5.50
2019-02-08T16:15:50.900Z,5.40
2019-02-08T16:18:21.348Z,5.40
2019-02-08T16:20:51.836Z,5.40
2019-02-08T16:23:22.374Z,5.40
2019-02-08T16:25:52.815Z,5.30
2019-02-08T16:28:23.429Z,5.30
2019-02-08T16:30:53.967Z,5.20
2019-02-08T16:33:24.317Z,5.20
2019-02-08T16:35:54.728Z,5.20
2019-02-08T16:38:25.090Z,5.20
2019-02-08T16:40:55.558Z,5.10
2019-02-08T16:43:26.109Z,5.10
2019-02-08T16:45:56.598Z,5.00
2019-02-08T16:48:26.934Z,5.00
2019-02-08T16:50:57.696Z,4.90
2019-02-08T16:53:28.532Z,4.90
2019-02-08T16:55:59.718Z,4.90
2019-02-08T16:58:30.233Z,4.90
2019-02-08T17:01:00.726Z,4.90
2019-02-08T17:03:31.807Z,4.80
2019-02-08T17:06:02.186Z,4.80
2019-02-08T17:08:32.605Z,4.90
2019-02-08T17:11:03.256Z,4.90
2019-02-08T17:13:35.114Z,4.90
2019-02-08T17:16:06.706Z,4.90
2019-02-08T17:18:37.159Z,4.90
2019-02-08T17:21:07.566Z,4.90
2019-02-08T17:23:37.968Z,4.90
2019-02-08T17:26:08.514Z,4.90
2019-02-08T17:28:39.218Z,4.80
2019-02-08T17:31:09.762Z,4.90
2019-02-08T17:33:40.228Z,4.80
2019-02-08T17:36:10.681Z,4.80
2019-02-08T17:38:41.200Z,4.80
2019-02-08T17:41:11.840Z,4.70
2019-02-08T17:43:42.247Z,4.70
2019-02-08T17:46:12.618Z,4.70
2019-02-08T17:48:43.002Z,4.70
2019-02-08T17:51:13.365Z,4.70
2019-02-08T17:53:44.136Z,4.70
2019-02-08T17:56:14.568Z,4.60
2019-02-08T17:58:45.080Z,4.60
2019-02-08T18:01:15.598Z,4.60
2019-02-08T18:03:46.116Z,4.60
2019-02-08T18:06:16.530Z,4.60
2019-02-08T18:08:46.922Z,4.60
2019-02-08T18:11:17.606Z,4.50
2019-02-08T18:13:48.077Z,4.50
2019-02-08T18:16:18.546Z,4.50
2019-02-08T18:18:48.931Z,4.50
2019-02-08T18:21:19.537Z,4.50
2019-02-08T18:23:51.652Z,4.40
2019-02-08T18:26:22.111Z,4.40
2019-02-08T18:28:52.590Z,4.40
2019-02-08T18:31:22.988Z,4.30
2019-02-08T18:33:53.536Z,4.30
2019-02-08T18:36:23.930Z,4.30
2019-02-08T18:38:54.389Z,4.30
2019-02-08T18:41:25.100Z,4.30
2019-02-08T18:43:55.624Z,4.30
2019-02-08T18:46:26.030Z,4.20
2019-02-08T18:48:56.986Z,4.20
2019-02-08T18:51:27.379Z,4.20
2019-02-08T18:53:57.855Z,4.20
2019-02-08T18:56:28.215Z,4.20
2019-02-08T18:58:58.630Z,4.20
2019-02-08T19:01:30.378Z,4.20
2019-02-08T19:04:00.790Z,4.20
2019-02-08T19:06:31.176Z,4.10
2019-02-08T19:09:01.729Z,4.10
2019-02-08T19:11:33.670Z,4.10
2019-02-08T19:14:04.238Z,4.10
2019-02-08T19:16:34.573Z,4.10
2019-02-08T19:19:04.958Z,4.10
2019-02-08T19:21:35.335Z,4.10
2019-02-08T19:24:05.904Z,4.00
2019-02-08T19:26:36.642Z,4.00
2019-02-08T19:29:07.110Z,4.00
2019-02-08T19:31:37.532Z,4.00
2019-02-08T19:34:08.160Z,3.90
2019-02-08T19:36:38.742Z,3.90
2019-02-08T19:39:10.653Z,3.70
2019-02-08T19:41:41.010Z,3.70
2019-02-08T19:44:11.868Z,3.60
2019-02-08T19:46:44.672Z,3.50
2019-02-08T19:49:16.694Z,3.40
2019-02-08T19:51:47.060Z,3.40
2019-02-08T19:54:17.583Z,3.40
2019-02-08T19:56:47.934Z,3.30
2019-02-08T19:59:18.682Z,3.30
2019-02-08T20:01:49.158Z,3.20
2019-02-08T20:04:19.882Z,3.30
2019-02-08T20:06:50.394Z,3.20
2019-02-08T20:09:20.924Z,3.20
2019-02-08T20:11:51.286Z,3.20
2019-02-08T20:14:21.889Z,3.20
2019-02-08T20:16:52.335Z,3.20
2019-02-08T20:19:23.503Z,3.20
2019-02-08T20:21:53.894Z,3.20
2019-02-08T20:24:24.628Z,3.10
2019-02-08T20:26:55.204Z,3.10
2019-02-08T20:29:25.594Z,3.10
2019-02-08T20:31:56.690Z,3.10
2019-02-08T20:34:27.079Z,3.10
2019-02-08T20:36:57.524Z,3.10
2019-02-08T20:39:27.924Z,3.00
2019-02-08T20:41:58.424Z,3.00
2019-02-08T20:44:28.834Z,3.00
2019-02-08T20:46:59.222Z,2.90
2019-02-08T20:49:29.856Z,2.90
2019-02-08T20:52:01.153Z,2.90
2019-02-08T20:54:31.745Z,2.80
2019-02-08T20:57:02.196Z,2.80
2019-02-08T20:59:32.596Z,2.80
2019-02-08T21:02:02.948Z,2.70
2019-02-08T21:04:33.568Z,2.70
2019-02-08T21:07:04.089Z,2.70
2019-02-08T21:09:34.440Z,2.70
2019-02-08T21:12:05.516Z,2.70
2019-02-08T21:14:35.839Z,2.70
2019-02-08T21:17:06.338Z,2.70
2019-02-08T21:19:36.740Z,2.60
2019-02-08T21:22:07.434Z,2.60
2019-02-08T21:24:37.859Z,2.60
2019-02-08T21:27:08.257Z,2.60
2019-02-08T21:29:38.803Z,2.60
2019-02-08T21:32:09.562Z,2.60
2019-02-08T21:34:40.137Z,2.60
2019-02-08T21:37:10.738Z,2.60
2019-02-08T21:39:41.482Z,2.50
2019-02-08T21:42:11.880Z,2.50
2019-02-08T21:44:42.256Z,2.50
2019-02-08T21:47:13.021Z,2.40
2019-02-08T21:49:43.589Z,2.40
2019-02-08T21:52:14.054Z,2.30
2019-02-08T21:54:44.526Z,2.30
2019-02-08T21:57:14.953Z,2.30
2019-02-08T21:59:46.869Z,2.20
2019-02-08T22:02:17.489Z,2.20
2019-02-08T22:04:47.895Z,2.20
2019-02-08T22:07:18.549Z,2.20
2019-02-08T22:09:49.024Z,2.20
2019-02-08T22:12:19.582Z,2.20
2019-02-08T22:14:50.025Z,2.10
2019-02-08T22:17:20.480Z,2.10
2019-02-08T22:19:50.883Z,2.10
2019-02-08T22:22:21.256Z,2.10
2019-02-08T22:24:52.819Z,2.10
2019-02-08T22:27:23.435Z,2.10
2019-02-08T22:29:53.856Z,2.00
2019-02-08T22:32:24.271Z,2.00
2019-02-08T22:34:54.688Z,2.00
2019-02-08T22:37:25.014Z,2.00
2019-02-08T22:39:55.429Z,2.00
2019-02-08T22:42:25.890Z,1.90
2019-02-08T22:44:56.296Z,1.90
2019-02-08T22:47:26.657Z,1.90
2019-02-08T22:49:57.127Z,1.90
2019-02-08T22:52:27.558Z,1.90
2019-02-08T22:54:57.987Z,1.80
2019-02-08T22:57:28.295Z,1.80
2019-02-08T22:59:58.805Z,1.80
2019-02-08T23:02:29.363Z,1.80
2019-02-08T23:04:59.757Z,1.80
2019-02-08T23:07:30.166Z,1.70
2019-02-08T23:10:00.600Z,1.70
2019-02-08T23:12:30.943Z,1.70
2019-02-08T23:15:01.339Z,1.60
2019-02-08T23:17:31.847Z,1.60
2019-02-08T23:20:02.175Z,1.60
2019-02-08T23:22:34.024Z,1.60
2019-02-08T23:25:05.393Z,1.60
2019-02-08T23:27:35.765Z,1.60
2019-02-08T23:30:08.173Z,1.60
2019-02-08T23:32:38.738Z,1.60
2019-02-08T23:35:09.745Z,1.60
2019-02-08T23:37:40.266Z,1.60
2019-02-08T23:40:11.049Z,1.50
2019-02-08T23:42:41.491Z,1.60
2019-02-08T23:45:12.650Z,1.50
2019-02-08T23:47:43.305Z,1.50
2019-02-08T23:50:14.215Z,1.50
2019-02-08T23:52:44.657Z,1.50
2019-02-08T23:55:16.681Z,1.60
2019-02-08T23:57:47.090Z,1.50
